Nearby METAR Reports

 

KHCR - Heber/Russ Mcdon, Utah, USA
Distance from station: SSW 18mi, 29km
Updated: Fri, 26-Feb-2021 5:35am MST
Overcast
Overcast
 Wind from calm
Wind: Calm
Temperature: 23°F , -5°C
Dew Point: 12°F , -11°C
Humidity: 63%
Barometer: 29.98 inHg , 1015.2 hPa
Clouds: Overcast
Visibility: 10 miles , 16 km
Cloud details: Mostly cloudy 4700 ft
Overcast 6000 ft
2021/02/26 12:35 KHCR 261235Z AUTO 00000KT 10SM BKN047 OVC060 M05/M11 A2998 RMK AO2
KSLC - Salt Lake City, Utah, USA
Distance from station: W 35mi, 57km
Updated: Fri, 26-Feb-2021 4:54am MST
Overcast
Overcast
 Wind from S
Wind: S 5 mph , 7 km/h
Temperature: 34°F , 1°C
Wind Chill: 29°F , -2°C
Dew Point: 19°F , -7°C
Humidity: 56%
Barometer: 30.03 inHg , 1016.9 hPa
Clouds: Overcast
Visibility: 10 miles , 16 km
Cloud details: Few Clouds 5000 ft
Mostly cloudy 7000 ft
Overcast 8000 ft
2021/02/26 11:54 KSLC 261154Z 17004KT 10SM FEW050 BKN070 OVC080 01/M07 A3003 RMK AO2 SLP173 T00061072 10011 21011 50006 $
 
KU42 - Salt Lake Muni, Utah, USA
Distance from station: WSW 37mi, 59km
Updated: Fri, 26-Feb-2021 5:35am MST
Overcast
Overcast
 Wind from calm
Wind: Calm
Temperature: 30°F , -1°C
Dew Point: 18°F , -8°C
Humidity: 59%
Barometer: 30.04 inHg , 1017.3 hPa
Clouds: Overcast
Visibility: 10 miles , 16 km
Cloud details: Overcast 7000 ft
2021/02/26 12:35 KU42 261235Z AUTO 00000KT 10SM OVC070 M01/M08 A3004 RMK AO1 T10081078
KEVW - Evanston, Wyoming, USA
Distance from station: NNE 40mi, 64km
Updated: Fri, 26-Feb-2021 5:49am MST
Overcast
Overcast
 Wind from SW
Wind: SW 21 mph , 33 km/h, Gust: 28 mph , 44 km/h
Temperature: 16°F , -9°C
Wind Chill: -1°F , -18°C
Dew Point: 12°F , -11°C
Humidity: 86%
Barometer: 29.88 inHg , 1011.9 hPa
Clouds: Overcast
Visibility: 9 miles , 14 km
Cloud details: Mostly cloudy 1500 ft
Overcast 2100 ft
2021/02/26 12:49 KEVW 261249Z AUTO 23018G24KT 9SM BKN015 OVC021 M09/M11 A2988 RMK AO2 SNE47 P0000
 
KPVU - Provo Muni, Utah, USA
Distance from station: SSW 41mi, 67km
Updated: Fri, 26-Feb-2021 4:56am MST
Overcast
Overcast
 Wind from N
Wind: N 3 mph , 6 km/h
Temperature: 27°F , -3°C
Dew Point: 16°F , -9°C
Humidity: 64%
Barometer: 30.05 inHg , 1017.6 hPa
Clouds: Overcast
Visibility: 10 miles , 16 km
Cloud details: Mostly cloudy 7000 ft
Overcast 8500 ft
2021/02/26 11:56 KPVU 261156Z AUTO 36003KT 10SM BKN070 OVC085 M03/M09 A3005 RMK AO2 SLP194 T10281094 11017 21044 53001 FZRANO
KHIF - Hill Afb/Ogden, Utah, USA
Distance from station: NW 45mi, 72km
Updated: Fri, 26-Feb-2021 4:58am MST
Overcast
Overcast
 Wind from WSW
Wind: WSW 10 mph , 17 km/h
Temperature: 30°F , -1°C
Wind Chill: 21°F , -6°C
Dew Point: 19°F , -7°C
Humidity: 64%
Barometer: 30.01 inHg , 1016.3 hPa
Clouds: Overcast
Visibility: 10 miles , 16 km
Cloud details: Mostly cloudy 4800 ft
Mostly cloudy 5500 ft
Overcast 8000 ft
2021/02/26 11:58 KHIF 261158Z AUTO 24009KT 10SM BKN048 BKN055 OVC080 M01/M07 A3001 RMK AO2 SNE00 SLP172 P0000 60000 T10111068 10003 21022 50003
 
KOGD - Ogden, Utah, USA
Distance from station: NW 50mi, 81km
Updated: Fri, 26-Feb-2021 4:53am MST
Mostly cloudy
Mostly cloudy
 Wind from S
Wind: S 6 mph , 9 km/h
Temperature: 30°F , -1°C
Wind Chill: 24°F , -4°C
Dew Point: 18°F , -8°C
Humidity: 59%
Barometer: 30.00 inHg , 1015.9 hPa
Clouds: Mostly cloudy
Visibility: 10 miles , 16 km
Cloud details: Few Clouds 5500 ft
Mostly cloudy 9500 ft
2021/02/26 11:53 KOGD 261153Z AUTO 18005KT 10SM FEW055 BKN095 M01/M08 A3000 RMK AO2 SLP169 T10111078 10022 21022 51002 $